createdAt,value
2017-04-08T00:00:10.378Z,0
2017-04-08T00:01:10.670Z,0
2017-04-08T00:02:10.451Z,0
2017-04-08T00:03:10.711Z,0
2017-04-08T00:04:10.789Z,0
2017-04-08T00:05:10.424Z,0
2017-04-08T00:06:10.421Z,0
2017-04-08T00:07:10.422Z,0
2017-04-08T00:08:10.076Z,0
2017-04-08T00:09:10.391Z,0
2017-04-08T00:10:10.499Z,0
2017-04-08T00:11:10.759Z,0
2017-04-08T00:12:10.403Z,0
2017-04-08T00:13:10.419Z,0
2017-04-08T00:14:10.483Z,0
2017-04-08T00:15:10.477Z,0
2017-04-08T00:16:10.759Z,0
2017-04-08T00:17:10.532Z,0
2017-04-08T00:18:10.870Z,0
2017-04-08T00:19:10.583Z,0
2017-04-08T00:20:10.783Z,0
2017-04-08T00:21:10.204Z,0
2017-04-08T00:22:10.521Z,0
2017-04-08T00:23:10.797Z,0
2017-04-08T00:24:10.796Z,0
2017-04-08T00:25:10.511Z,0
2017-04-08T00:26:10.229Z,0
2017-04-08T00:27:10.492Z,0
2017-04-08T00:28:10.870Z,0
2017-04-08T00:29:10.871Z,0
2017-04-08T00:30:10.844Z,0
2017-04-08T00:31:10.993Z,0
2017-04-08T00:32:10.852Z,0
2017-04-08T00:33:10.637Z,0
2017-04-08T00:34:10.538Z,0
2017-04-08T00:35:10.856Z,0
2017-04-08T00:36:10.986Z,0
2017-04-08T00:37:10.920Z,0
2017-04-08T00:38:10.949Z,0
2017-04-08T00:39:10.932Z,0
2017-04-08T00:40:10.900Z,0
2017-04-08T00:41:10.955Z,0
2017-04-08T00:42:10.957Z,0
2017-04-08T00:43:10.909Z,0
2017-04-08T00:44:10.977Z,0
2017-04-08T00:45:10.683Z,0
2017-04-08T00:46:10.667Z,0
2017-04-08T00:47:10.629Z,0
2017-04-08T00:48:10.994Z,0
2017-04-08T00:49:10.327Z,0
2017-04-08T00:50:11.500Z,0
2017-04-08T00:51:10.667Z,0
2017-04-08T00:52:11.026Z,0
2017-04-08T00:53:10.351Z,0
2017-04-08T00:54:11.041Z,0
2017-04-08T00:55:11.033Z,0
2017-04-08T00:56:11.001Z,0
2017-04-08T00:57:11.114Z,0
2017-04-08T00:58:11.122Z,0
2017-04-08T00:59:10.707Z,0
2017-04-08T01:00:11.025Z,0
2017-04-08T01:01:10.786Z,0
2017-04-08T01:02:11.086Z,0
2017-04-08T01:03:11.046Z,0
2017-04-08T01:04:11.103Z,0
2017-04-08T01:05:10.840Z,0
2017-04-08T01:06:11.412Z,0
2017-04-08T01:07:11.110Z,0
2017-04-08T01:08:11.117Z,0
2017-04-08T01:09:11.195Z,0
2017-04-08T01:10:11.135Z,0
2017-04-08T01:11:10.768Z,0
2017-04-08T01:12:10.829Z,0
2017-04-08T01:13:10.941Z,0
2017-04-08T01:14:11.212Z,0
2017-04-08T01:15:11.115Z,0
2017-04-08T01:16:10.564Z,0
2017-04-08T01:17:10.869Z,0
2017-04-08T01:18:10.810Z,0
2017-04-08T01:19:11.149Z,0
2017-04-08T01:20:11.154Z,0
2017-04-08T01:21:10.942Z,0
2017-04-08T01:22:11.202Z,0
2017-04-08T01:23:11.154Z,0
2017-04-08T01:24:11.229Z,0
2017-04-08T01:25:10.913Z,0
2017-04-08T01:26:10.871Z,0
2017-04-08T01:27:10.925Z,0
2017-04-08T01:28:11.307Z,0
2017-04-08T01:29:11.244Z,0
2017-04-08T01:30:11.353Z,0
2017-04-08T01:31:10.629Z,0
2017-04-08T01:32:10.692Z,0
2017-04-08T01:33:11.280Z,0
2017-04-08T01:34:11.292Z,0
2017-04-08T01:35:10.920Z,0
2017-04-08T01:36:10.924Z,0
2017-04-08T01:37:10.938Z,0
2017-04-08T01:38:11.260Z,0
2017-04-08T01:39:11.306Z,0
2017-04-08T01:40:11.347Z,0
2017-04-08T01:41:11.326Z,0
2017-04-08T01:42:11.020Z,0
2017-04-08T01:43:11.374Z,0
2017-04-08T01:44:11.297Z,0
2017-04-08T01:45:11.358Z,0
2017-04-08T01:46:10.988Z,0
2017-04-08T01:47:11.415Z,0
2017-04-08T01:48:11.389Z,0
2017-04-08T01:49:11.325Z,0
2017-04-08T01:50:11.735Z,0
2017-04-08T01:51:11.342Z,0
2017-04-08T01:52:11.679Z,0
2017-04-08T01:53:11.399Z,0
2017-04-08T01:54:11.511Z,0
2017-04-08T01:55:11.465Z,0
2017-04-08T01:56:11.377Z,0
2017-04-08T01:57:11.426Z,0
2017-04-08T01:58:11.470Z,0
2017-04-08T01:59:11.189Z,0
2017-04-08T02:00:11.084Z,0
2017-04-08T02:01:11.234Z,0
2017-04-08T02:02:11.185Z,0
2017-04-08T02:03:10.777Z,0
2017-04-08T02:04:12.133Z,0
2017-04-08T02:05:11.424Z,0
2017-04-08T02:06:11.179Z,0
2017-04-08T02:07:10.859Z,0
2017-04-08T02:08:10.494Z,0
2017-04-08T02:09:11.596Z,0
2017-04-08T02:10:11.551Z,0
2017-04-08T02:11:11.476Z,0
2017-04-08T02:12:11.473Z,0
2017-04-08T02:13:11.503Z,0
2017-04-08T02:14:11.161Z,0
2017-04-08T02:15:11.509Z,0
2017-04-08T02:16:11.500Z,0
2017-04-08T02:17:11.179Z,0
2017-04-08T02:18:11.567Z,0
2017-04-08T02:19:11.513Z,0
2017-04-08T02:20:11.264Z,0
2017-04-08T02:21:11.324Z,0
2017-04-08T02:22:11.627Z,0
2017-04-08T02:23:11.232Z,0
2017-04-08T02:24:11.229Z,0
2017-04-08T02:25:11.594Z,0
2017-04-08T02:26:11.610Z,0
2017-04-08T02:27:11.580Z,0
2017-04-08T02:28:11.303Z,0
2017-04-08T02:29:11.356Z,0
2017-04-08T02:30:10.953Z,0
2017-04-08T02:31:11.593Z,0
2017-04-08T02:32:11.684Z,0
2017-04-08T02:33:11.280Z,0
2017-04-08T02:34:11.352Z,0
2017-04-08T02:35:11.339Z,0
2017-04-08T02:36:11.839Z,0
2017-04-08T02:37:11.359Z,0
2017-04-08T02:38:11.624Z,0
2017-04-08T02:39:11.736Z,0
2017-04-08T02:40:11.018Z,0
2017-04-08T02:41:11.392Z,0
2017-04-08T02:42:11.708Z,0
2017-04-08T02:43:11.349Z,0
2017-04-08T02:44:11.671Z,0
2017-04-08T02:45:11.409Z,0
2017-04-08T02:46:11.741Z,0
2017-04-08T02:47:11.398Z,0
2017-04-08T02:48:11.378Z,0
2017-04-08T02:49:11.415Z,0
2017-04-08T02:50:11.855Z,0
2017-04-08T02:51:11.450Z,0
2017-04-08T02:52:11.766Z,0
2017-04-08T02:53:11.722Z,0
2017-04-08T02:54:11.793Z,0
2017-04-08T02:55:11.736Z,0
2017-04-08T02:56:11.422Z,0
2017-04-08T02:57:12.752Z,0
2017-04-08T02:58:11.759Z,0
2017-04-08T02:59:11.184Z,0
2017-04-08T03:00:11.451Z,0
2017-04-08T03:01:11.454Z,0
2017-04-08T03:02:11.509Z,0
2017-04-08T03:03:11.840Z,0
2017-04-08T03:04:11.530Z,0
2017-04-08T03:05:11.169Z,0
2017-04-08T03:06:11.813Z,0
2017-04-08T03:07:11.996Z,0
2017-04-08T03:08:11.497Z,0
2017-04-08T03:09:11.658Z,0
2017-04-08T03:10:11.576Z,0
2017-04-08T03:11:11.948Z,0
2017-04-08T03:12:11.535Z,0
2017-04-08T03:13:11.579Z,0
2017-04-08T03:14:11.910Z,0
2017-04-08T03:15:11.280Z,0
2017-04-08T03:16:11.557Z,0
2017-04-08T03:17:11.926Z,0
2017-04-08T03:18:11.872Z,0
2017-04-08T03:19:11.876Z,0
2017-04-08T03:20:11.991Z,0
2017-04-08T03:21:11.644Z,0
2017-04-08T03:22:11.954Z,0
2017-04-08T03:23:11.649Z,0
2017-04-08T03:24:13.104Z,0
2017-04-08T03:25:11.713Z,0
2017-04-08T03:26:11.936Z,0
2017-04-08T03:27:11.981Z,0
2017-04-08T03:28:11.695Z,0
2017-04-08T03:29:11.949Z,0
2017-04-08T03:30:11.640Z,0
2017-04-08T03:31:11.962Z,0
2017-04-08T03:32:12.016Z,0
2017-04-08T03:33:11.699Z,0
2017-04-08T03:34:11.495Z,0
2017-04-08T03:35:12.041Z,0
2017-04-08T03:36:12.066Z,0
2017-04-08T03:37:11.979Z,0
2017-04-08T03:38:12.010Z,0
2017-04-08T03:39:12.363Z,0
2017-04-08T03:40:11.698Z,0
2017-04-08T03:41:11.856Z,0
2017-04-08T03:42:12.085Z,0
2017-04-08T03:43:11.550Z,0
2017-04-08T03:44:12.095Z,0
2017-04-08T03:45:11.788Z,0
2017-04-08T03:46:11.741Z,0
2017-04-08T03:47:12.056Z,0
2017-04-08T03:48:12.226Z,0
2017-04-08T03:49:12.115Z,0
2017-04-08T03:50:11.807Z,0
2017-04-08T03:51:12.080Z,0
2017-04-08T03:52:11.780Z,0
2017-04-08T03:53:12.556Z,0
2017-04-08T03:54:12.218Z,0
2017-04-08T03:55:11.481Z,0
2017-04-08T03:56:11.807Z,0
2017-04-08T03:57:11.907Z,0
2017-04-08T03:58:12.198Z,0
2017-04-08T03:59:12.138Z,0
2017-04-08T04:00:12.139Z,0
2017-04-08T04:01:11.891Z,0
2017-04-08T04:02:12.163Z,0
2017-04-08T04:03:12.210Z,0
2017-04-08T04:04:11.543Z,0
2017-04-08T04:05:12.297Z,0
2017-04-08T04:06:12.427Z,0
2017-04-08T04:07:12.290Z,0
2017-04-08T04:08:11.924Z,0
2017-04-08T04:09:11.933Z,0
2017-04-08T04:10:12.260Z,0
2017-04-08T04:11:12.270Z,0
2017-04-08T04:12:11.951Z,0
2017-04-08T04:13:12.229Z,0
2017-04-08T04:14:12.334Z,0
2017-04-08T04:15:11.978Z,0
2017-04-08T04:16:12.248Z,0
2017-04-08T04:17:11.943Z,0
2017-04-08T04:18:12.357Z,0
2017-04-08T04:19:13.964Z,0
2017-04-08T04:20:12.316Z,0
2017-04-08T04:21:12.325Z,0
2017-04-08T04:22:12.285Z,0
2017-04-08T04:23:12.022Z,0
2017-04-08T04:24:12.409Z,0
2017-04-08T04:25:12.343Z,0
2017-04-08T04:26:12.321Z,0
2017-04-08T04:27:12.363Z,0
2017-04-08T04:28:12.334Z,0
2017-04-08T04:29:12.069Z,0
2017-04-08T04:30:11.802Z,0
2017-04-08T04:31:12.333Z,0
2017-04-08T04:32:12.394Z,0
2017-04-08T04:33:12.401Z,0
2017-04-08T04:34:12.414Z,0
2017-04-08T04:35:12.099Z,0
2017-04-08T04:36:12.470Z,0
2017-04-08T04:37:12.492Z,0
2017-04-08T04:38:12.423Z,0
2017-04-08T04:39:12.390Z,0
2017-04-08T04:40:12.395Z,4
2017-04-08T04:41:12.428Z,4
2017-04-08T04:42:12.453Z,4
2017-04-08T04:43:12.507Z,0
2017-04-08T04:44:11.842Z,0
2017-04-08T04:45:12.114Z,4
2017-04-08T04:46:12.424Z,4
2017-04-08T04:47:12.565Z,4
2017-04-08T04:48:12.487Z,4
2017-04-08T04:49:12.179Z,4
2017-04-08T04:50:11.875Z,8
2017-04-08T04:51:12.258Z,8
2017-04-08T04:52:12.475Z,4
2017-04-08T04:53:12.528Z,8
2017-04-08T04:54:12.275Z,8
2017-04-08T04:55:12.219Z,12
2017-04-08T04:56:12.498Z,8
2017-04-08T04:57:12.604Z,12
2017-04-08T04:58:12.192Z,8
2017-04-08T04:59:12.617Z,12
2017-04-08T05:00:12.204Z,16
2017-04-08T05:01:12.526Z,12
2017-04-08T05:02:12.645Z,16
2017-04-08T05:03:12.267Z,16
2017-04-08T05:04:12.605Z,20
2017-04-08T05:05:12.242Z,20
2017-04-08T05:06:12.247Z,20
2017-04-08T05:07:12.558Z,24
2017-04-08T05:08:12.578Z,24
2017-04-08T05:09:12.268Z,28
2017-04-08T05:10:12.675Z,28
2017-04-08T05:11:12.682Z,28
2017-04-08T05:12:12.336Z,28
2017-04-08T05:13:12.602Z,32
2017-04-08T05:14:12.286Z,32
2017-04-08T05:15:12.657Z,32
2017-04-08T05:16:12.353Z,36
2017-04-08T05:17:12.353Z,40
2017-04-08T05:18:12.359Z,40
2017-04-08T05:19:13.495Z,44
2017-04-08T05:20:12.481Z,48
2017-04-08T05:21:12.657Z,48
2017-04-08T05:22:12.649Z,52
2017-04-08T05:23:12.659Z,52
2017-04-08T05:24:12.400Z,56
2017-04-08T05:25:12.722Z,56
2017-04-08T05:26:12.419Z,56
2017-04-08T05:27:12.706Z,60
2017-04-08T05:28:12.752Z,60
2017-04-08T05:29:12.696Z,64
2017-04-08T05:30:12.796Z,68
2017-04-08T05:31:12.394Z,72
2017-04-08T05:32:12.401Z,76
2017-04-08T05:33:12.606Z,76
2017-04-08T05:34:12.782Z,76
2017-04-08T05:35:12.756Z,76
2017-04-08T05:36:12.742Z,80
2017-04-08T05:37:12.798Z,84
2017-04-08T05:38:12.755Z,88
2017-04-08T05:39:12.443Z,96
2017-04-08T05:40:12.457Z,96
2017-04-08T05:41:12.814Z,104
2017-04-08T05:42:12.522Z,104
2017-04-08T05:43:12.804Z,108
2017-04-08T05:44:12.882Z,108
2017-04-08T05:45:12.580Z,112
2017-04-08T05:46:12.797Z,116
2017-04-08T05:47:12.831Z,116
2017-04-08T05:48:12.817Z,120
2017-04-08T05:49:12.830Z,120
2017-04-08T05:50:12.560Z,120
2017-04-08T05:51:12.616Z,120
2017-04-08T05:52:12.887Z,120
2017-04-08T05:53:12.895Z,124
2017-04-08T05:54:13.144Z,124
2017-04-08T05:55:12.853Z,128
2017-04-08T05:56:12.550Z,132
2017-04-08T05:57:12.286Z,136
2017-04-08T05:58:12.618Z,140
2017-04-08T05:59:12.934Z,140
2017-04-08T06:00:12.887Z,152
2017-04-08T06:01:12.903Z,156
2017-04-08T06:02:12.993Z,160
2017-04-08T06:03:13.005Z,160
2017-04-08T06:04:13.574Z,164
2017-04-08T06:05:12.607Z,164
2017-04-08T06:06:12.969Z,172
2017-04-08T06:07:12.992Z,176
2017-04-08T06:08:12.978Z,176
2017-04-08T06:09:12.947Z,180
2017-04-08T06:10:12.638Z,188
2017-04-08T06:11:12.955Z,200
2017-04-08T06:12:12.971Z,212
2017-04-08T06:13:12.701Z,224
2017-04-08T06:14:13.103Z,232
2017-04-08T06:15:13.028Z,240
2017-04-08T06:16:12.687Z,248
2017-04-08T06:17:12.983Z,256
2017-04-08T06:18:13.000Z,256
2017-04-08T06:19:12.684Z,256
2017-04-08T06:20:13.021Z,256
2017-04-08T06:21:13.014Z,260
2017-04-08T06:22:13.069Z,268
2017-04-08T06:23:12.709Z,276
2017-04-08T06:24:13.033Z,284
2017-04-08T06:25:12.774Z,288
2017-04-08T06:26:13.045Z,292
2017-04-08T06:27:13.071Z,296
2017-04-08T06:28:12.746Z,304
2017-04-08T06:29:12.851Z,304
2017-04-08T06:30:13.113Z,316
2017-04-08T06:31:12.821Z,332
2017-04-08T06:32:12.818Z,360
2017-04-08T06:33:13.076Z,376
2017-04-08T06:34:13.143Z,376
2017-04-08T06:35:12.787Z,392
2017-04-08T06:36:13.152Z,420
2017-04-08T06:37:13.158Z,424
2017-04-08T06:38:12.806Z,416
2017-04-08T06:39:12.870Z,400
2017-04-08T06:40:12.870Z,400
2017-04-08T06:41:13.191Z,404
2017-04-08T06:42:13.148Z,420
2017-04-08T06:43:13.196Z,440
2017-04-08T06:44:13.210Z,432
2017-04-08T06:45:12.901Z,412
2017-04-08T06:46:13.184Z,404
2017-04-08T06:47:13.228Z,400
2017-04-08T06:48:13.174Z,404
2017-04-08T06:49:12.881Z,408
2017-04-08T06:50:13.375Z,420
2017-04-08T06:51:13.383Z,436
2017-04-08T06:52:13.317Z,444
2017-04-08T06:53:12.965Z,448
2017-04-08T06:54:13.564Z,460
2017-04-08T06:55:13.319Z,476
2017-04-08T06:56:13.740Z,500
2017-04-08T06:57:13.294Z,528
2017-04-08T06:58:13.243Z,532
2017-04-08T06:59:13.043Z,520
2017-04-08T07:00:12.999Z,512
2017-04-08T07:01:13.259Z,508
2017-04-08T07:02:13.377Z,504
2017-04-08T07:03:12.958Z,496
2017-04-08T07:04:13.382Z,488
2017-04-08T07:05:13.338Z,480
2017-04-08T07:06:12.981Z,476
2017-04-08T07:07:13.351Z,476
2017-04-08T07:08:13.359Z,480
2017-04-08T07:09:12.989Z,480
2017-04-08T07:10:13.319Z,488
2017-04-08T07:11:13.366Z,492
2017-04-08T07:12:13.430Z,496
2017-04-08T07:13:13.334Z,504
2017-04-08T07:14:12.816Z,520
2017-04-08T07:15:13.355Z,536
2017-04-08T07:16:13.356Z,596
2017-04-08T07:17:13.453Z,624
2017-04-08T07:18:13.449Z,620
2017-04-08T07:19:13.411Z,600
2017-04-08T07:20:13.386Z,564
2017-04-08T07:21:13.446Z,532
2017-04-08T07:22:13.393Z,520
2017-04-08T07:23:13.175Z,500
2017-04-08T07:24:13.442Z,484
2017-04-08T07:25:13.496Z,468
2017-04-08T07:26:13.475Z,460
2017-04-08T07:27:13.164Z,448
2017-04-08T07:28:13.119Z,440
2017-04-08T07:29:13.440Z,436
2017-04-08T07:30:12.849Z,440
2017-04-08T07:31:12.811Z,440
2017-04-08T07:32:13.512Z,452
2017-04-08T07:33:13.520Z,460
2017-04-08T07:34:13.197Z,468
2017-04-08T07:35:13.677Z,480
2017-04-08T07:36:13.538Z,500
2017-04-08T07:37:13.222Z,508
2017-04-08T07:38:13.587Z,512
2017-04-08T07:39:13.186Z,516
2017-04-08T07:40:13.503Z,524
2017-04-08T07:41:13.243Z,528
2017-04-08T07:42:13.315Z,528
2017-04-08T07:43:13.572Z,528
2017-04-08T07:44:13.527Z,536
2017-04-08T07:45:13.993Z,528
2017-04-08T07:46:13.640Z,524
2017-04-08T07:47:13.234Z,528
2017-04-08T07:48:13.561Z,540
2017-04-08T07:49:13.551Z,552
2017-04-08T07:50:13.303Z,560
2017-04-08T07:51:13.571Z,560
2017-04-08T07:52:13.726Z,560
2017-04-08T07:53:13.363Z,560
2017-04-08T07:54:13.653Z,564
2017-04-08T07:55:13.330Z,568
2017-04-08T07:56:13.297Z,572
2017-04-08T07:57:13.618Z,568
2017-04-08T07:58:13.671Z,564
2017-04-08T07:59:13.664Z,556
2017-04-08T08:00:13.621Z,560
2017-04-08T08:01:13.341Z,564
2017-04-08T08:02:13.685Z,568
2017-04-08T08:03:13.384Z,572
2017-04-08T08:04:13.664Z,580
2017-04-08T08:05:13.714Z,584
2017-04-08T08:06:13.397Z,596
2017-04-08T08:07:13.719Z,608
2017-04-08T08:08:13.099Z,616
2017-04-08T08:09:13.748Z,632
2017-04-08T08:10:14.000Z,656
2017-04-08T08:11:13.394Z,704
2017-04-08T08:12:13.456Z,720
2017-04-08T08:13:13.712Z,716
2017-04-08T08:14:13.450Z,712
2017-04-08T08:15:13.718Z,704
2017-04-08T08:16:13.470Z,704
2017-04-08T08:17:14.982Z,700
2017-04-08T08:18:13.810Z,684
2017-04-08T08:19:13.753Z,680
2017-04-08T08:20:13.454Z,684
2017-04-08T08:21:13.871Z,704
2017-04-08T08:22:13.818Z,720
2017-04-08T08:23:13.784Z,720
2017-04-08T08:24:13.785Z,712
2017-04-08T08:25:13.902Z,708
2017-04-08T08:26:13.914Z,712
2017-04-08T08:27:13.624Z,728
2017-04-08T08:28:13.831Z,740
2017-04-08T08:29:13.812Z,744
2017-04-08T08:30:13.832Z,748
2017-04-08T08:31:13.890Z,760
2017-04-08T08:32:14.283Z,756
2017-04-08T08:33:13.887Z,752
2017-04-08T08:34:13.588Z,764
2017-04-08T08:35:15.571Z,784
2017-04-08T08:36:13.245Z,808
2017-04-08T08:37:13.973Z,860
2017-04-08T08:38:13.926Z,864
2017-04-08T08:39:13.681Z,856
2017-04-08T08:40:13.953Z,840
2017-04-08T08:41:13.976Z,864
2017-04-08T08:42:13.603Z,856
2017-04-08T08:43:13.648Z,856
2017-04-08T08:44:13.660Z,892
2017-04-08T08:45:13.671Z,880
2017-04-08T08:46:13.988Z,908
2017-04-08T08:47:14.005Z,948
2017-04-08T08:48:14.000Z,1004
2017-04-08T08:49:13.692Z,1044
2017-04-08T08:50:13.750Z,1092
2017-04-08T08:51:13.336Z,1104
2017-04-08T08:52:14.029Z,1084
2017-04-08T08:53:14.025Z,1076
2017-04-08T08:54:13.719Z,1084
2017-04-08T08:55:15.348Z,1092
2017-04-08T08:56:13.860Z,1100
2017-04-08T08:57:14.557Z,1076
2017-04-08T08:58:14.020Z,1052
2017-04-08T08:59:14.073Z,1040
2017-04-08T09:00:13.727Z,1052
2017-04-08T09:01:14.085Z,1052
2017-04-08T09:02:14.099Z,1028
2017-04-08T09:03:14.163Z,1004
2017-04-08T09:04:14.057Z,984
2017-04-08T09:05:14.062Z,964
2017-04-08T09:06:14.252Z,948
2017-04-08T09:07:14.081Z,928
2017-04-08T09:08:14.130Z,904
2017-04-08T09:09:14.102Z,892
2017-04-08T09:10:13.844Z,896
2017-04-08T09:11:14.131Z,900
2017-04-08T09:12:14.111Z,868
2017-04-08T09:13:13.807Z,836
2017-04-08T09:14:14.281Z,820
2017-04-08T09:15:13.872Z,820
2017-04-08T09:16:14.291Z,828
2017-04-08T09:17:14.207Z,816
2017-04-08T09:18:13.842Z,812
2017-04-08T09:19:14.160Z,820
2017-04-08T09:20:14.225Z,832
2017-04-08T09:21:14.270Z,852
2017-04-08T09:22:14.240Z,884
2017-04-08T09:23:14.182Z,908
2017-04-08T09:24:14.251Z,928
2017-04-08T09:25:13.633Z,944
2017-04-08T09:26:14.885Z,968
2017-04-08T09:27:14.241Z,992
2017-04-08T09:28:14.219Z,1000
2017-04-08T09:29:14.228Z,1008
2017-04-08T09:30:14.252Z,1052
2017-04-08T09:31:14.286Z,1096
2017-04-08T09:32:14.042Z,1136
2017-04-08T09:33:13.960Z,1200
2017-04-08T09:34:14.269Z,1252
2017-04-08T09:35:14.059Z,1276
2017-04-08T09:36:14.282Z,1296
2017-04-08T09:37:14.407Z,1300
2017-04-08T09:38:14.032Z,1284
2017-04-08T09:39:13.682Z,1264
2017-04-08T09:40:14.354Z,1256
2017-04-08T09:41:14.417Z,1236
2017-04-08T09:42:14.039Z,1236
2017-04-08T09:43:14.026Z,1220
2017-04-08T09:44:14.393Z,1200
2017-04-08T09:45:14.374Z,1184
2017-04-08T09:46:14.044Z,1164
2017-04-08T09:47:14.406Z,1144
2017-04-08T09:48:14.373Z,1116
2017-04-08T09:49:14.424Z,1096
2017-04-08T09:50:14.421Z,1084
2017-04-08T09:51:14.184Z,1076
2017-04-08T09:52:14.391Z,1060
2017-04-08T09:53:14.531Z,1044
2017-04-08T09:54:13.780Z,1036
2017-04-08T09:55:14.431Z,1024
2017-04-08T09:56:14.201Z,1024
2017-04-08T09:57:14.482Z,1020
2017-04-08T09:58:14.544Z,1032
2017-04-08T09:59:14.134Z,1028
2017-04-08T10:00:14.467Z,1028
2017-04-08T10:01:14.524Z,1032
2017-04-08T10:02:14.245Z,1052
2017-04-08T10:03:14.217Z,1076
2017-04-08T10:04:14.579Z,1104
2017-04-08T10:05:14.175Z,1144
2017-04-08T10:06:14.559Z,1220
2017-04-08T10:07:14.553Z,1284
2017-04-08T10:08:13.879Z,1320
2017-04-08T10:09:14.251Z,1268
2017-04-08T10:10:14.580Z,1316
2017-04-08T10:11:14.563Z,1360
2017-04-08T10:12:14.275Z,1424
2017-04-08T10:13:14.223Z,1456
2017-04-08T10:14:14.559Z,1440
2017-04-08T10:15:14.559Z,1476
2017-04-08T10:16:14.861Z,1524
2017-04-08T10:17:14.689Z,1524
2017-04-08T10:18:14.312Z,1492
2017-04-08T10:19:14.634Z,1476
2017-04-08T10:20:14.600Z,1456
2017-04-08T10:21:14.345Z,1412
2017-04-08T10:22:14.741Z,1544
2017-04-08T10:23:14.776Z,1372
2017-04-08T10:24:14.625Z,1388
2017-04-08T10:25:14.332Z,1444
2017-04-08T10:26:15.033Z,1368
2017-04-08T10:27:14.395Z,1356
2017-04-08T10:28:14.716Z,1352
2017-04-08T10:29:14.497Z,1332
2017-04-08T10:30:14.674Z,1312
2017-04-08T10:31:14.409Z,1304
2017-04-08T10:32:14.528Z,1288
2017-04-08T10:33:14.736Z,1280
2017-04-08T10:34:14.379Z,1280
2017-04-08T10:35:14.438Z,1276
2017-04-08T10:36:14.457Z,1268
2017-04-08T10:37:14.470Z,1256
2017-04-08T10:38:14.790Z,1252
2017-04-08T10:39:14.466Z,1224
2017-04-08T10:40:14.792Z,1308
2017-04-08T10:41:14.204Z,1116
2017-04-08T10:42:14.493Z,1052
2017-04-08T10:43:14.807Z,1008
2017-04-08T10:44:14.870Z,972
2017-04-08T10:45:14.776Z,936
2017-04-08T10:46:14.881Z,904
2017-04-08T10:47:14.804Z,884
2017-04-08T10:48:14.609Z,872
2017-04-08T10:49:14.856Z,868
2017-04-08T10:50:15.319Z,876
2017-04-08T10:51:14.554Z,884
2017-04-08T10:52:14.560Z,876
2017-04-08T10:53:14.832Z,876
2017-04-08T10:54:14.871Z,860
2017-04-08T10:55:14.914Z,832
2017-04-08T10:56:14.908Z,808
2017-04-08T10:57:15.362Z,804
2017-04-08T10:58:14.567Z,848
2017-04-08T10:59:14.610Z,816
2017-04-08T11:00:14.992Z,784
2017-04-08T11:01:14.890Z,772
2017-04-08T11:02:14.741Z,764
2017-04-08T11:03:14.964Z,756
2017-04-08T11:04:14.911Z,748
2017-04-08T11:05:14.969Z,740
2017-04-08T11:06:14.931Z,728
2017-04-08T11:07:14.465Z,716
2017-04-08T11:08:14.949Z,708
2017-04-08T11:09:15.363Z,704
2017-04-08T11:10:14.700Z,704
2017-04-08T11:11:15.015Z,704
2017-04-08T11:12:14.400Z,704
2017-04-08T11:13:14.778Z,700
2017-04-08T11:14:14.983Z,688
2017-04-08T11:15:15.041Z,680
2017-04-08T11:16:14.998Z,676
2017-04-08T11:17:14.706Z,672
2017-04-08T11:18:14.704Z,668
2017-04-08T11:19:15.025Z,664
2017-04-08T11:20:15.082Z,664
2017-04-08T11:21:14.512Z,668
2017-04-08T11:22:14.732Z,680
2017-04-08T11:23:15.126Z,696
2017-04-08T11:24:15.082Z,704
2017-04-08T11:25:15.108Z,712
2017-04-08T11:26:14.773Z,720
2017-04-08T11:27:14.816Z,732
2017-04-08T11:28:15.186Z,748
2017-04-08T11:29:15.155Z,756
2017-04-08T11:30:14.802Z,756
2017-04-08T11:31:15.110Z,772
2017-04-08T11:32:15.221Z,780
2017-04-08T11:33:14.826Z,788
2017-04-08T11:34:15.127Z,800
2017-04-08T11:35:15.194Z,824
2017-04-08T11:36:15.140Z,840
2017-04-08T11:37:15.220Z,860
2017-04-08T11:38:15.208Z,872
2017-04-08T11:39:15.224Z,884
2017-04-08T11:40:14.862Z,896
2017-04-08T11:41:15.288Z,904
2017-04-08T11:42:14.552Z,908
2017-04-08T11:43:15.248Z,912
2017-04-08T11:44:15.251Z,912
2017-04-08T11:45:14.997Z,912
2017-04-08T11:46:15.269Z,916
2017-04-08T11:47:15.286Z,908
2017-04-08T11:48:15.277Z,896
2017-04-08T11:49:15.234Z,884
2017-04-08T11:50:15.297Z,864
2017-04-08T11:51:15.537Z,856
2017-04-08T11:52:15.326Z,856
2017-04-08T11:53:14.954Z,856
2017-04-08T11:54:15.324Z,868
2017-04-08T11:55:15.014Z,872
2017-04-08T11:56:15.034Z,876
2017-04-08T11:57:15.294Z,872
2017-04-08T11:58:14.993Z,864
2017-04-08T11:59:15.039Z,848
2017-04-08T12:00:15.362Z,832
2017-04-08T12:01:15.373Z,816
2017-04-08T12:02:15.072Z,804
2017-04-08T12:03:15.342Z,804
2017-04-08T12:04:15.346Z,804
2017-04-08T12:05:15.402Z,804
2017-04-08T12:06:15.405Z,804
2017-04-08T12:07:15.378Z,800
2017-04-08T12:08:15.108Z,800
2017-04-08T12:09:15.598Z,788
2017-04-08T12:10:15.127Z,792
2017-04-08T12:11:15.453Z,788
2017-04-08T12:12:15.188Z,788
2017-04-08T12:13:15.451Z,780
2017-04-08T12:14:15.514Z,768
2017-04-08T12:15:15.483Z,768
2017-04-08T12:16:15.439Z,764
2017-04-08T12:17:15.177Z,756
2017-04-08T12:18:15.498Z,748
2017-04-08T12:19:15.193Z,736
2017-04-08T12:20:15.254Z,720
2017-04-08T12:21:15.569Z,712
2017-04-08T12:22:15.265Z,700
2017-04-08T12:23:15.590Z,696
2017-04-08T12:24:15.215Z,692
2017-04-08T12:25:15.506Z,692
2017-04-08T12:26:15.505Z,692
2017-04-08T12:27:15.244Z,688
2017-04-08T12:28:15.621Z,688
2017-04-08T12:29:15.573Z,688
2017-04-08T12:30:15.533Z,684
2017-04-08T12:31:15.553Z,684
2017-04-08T12:32:15.238Z,688
2017-04-08T12:33:15.285Z,700
2017-04-08T12:34:15.609Z,708
2017-04-08T12:35:14.992Z,716
2017-04-08T12:36:15.254Z,724
2017-04-08T12:37:16.483Z,740
2017-04-08T12:38:15.954Z,752
2017-04-08T12:39:15.691Z,760
2017-04-08T12:40:15.596Z,776
2017-04-08T12:41:15.299Z,784
2017-04-08T12:42:15.358Z,796
2017-04-08T12:43:16.224Z,812
2017-04-08T12:44:15.643Z,828
2017-04-08T12:45:15.367Z,844
2017-04-08T12:46:15.644Z,860
2017-04-08T12:47:15.333Z,876
2017-04-08T12:48:15.675Z,888
2017-04-08T12:49:15.405Z,896
2017-04-08T12:50:15.720Z,912
2017-04-08T12:51:15.744Z,928
2017-04-08T12:52:15.058Z,948
2017-04-08T12:53:15.384Z,972
2017-04-08T12:54:15.124Z,988
2017-04-08T12:55:15.502Z,1012
2017-04-08T12:56:15.447Z,1020
2017-04-08T12:57:15.863Z,1028
2017-04-08T12:58:15.726Z,1024
2017-04-08T12:59:15.729Z,1032
2017-04-08T13:00:15.800Z,1040
2017-04-08T13:01:15.861Z,1056
2017-04-08T13:02:15.491Z,1072
2017-04-08T13:03:16.055Z,1088
2017-04-08T13:04:15.185Z,1092
2017-04-08T13:05:15.484Z,1092
2017-04-08T13:06:15.570Z,1108
2017-04-08T13:07:15.912Z,1152
2017-04-08T13:08:16.057Z,1144
2017-04-08T13:09:15.546Z,1140
2017-04-08T13:10:15.605Z,1140
2017-04-08T13:11:15.922Z,1144
2017-04-08T13:12:15.926Z,1184
2017-04-08T13:13:15.889Z,1108
2017-04-08T13:14:16.178Z,1096
2017-04-08T13:15:15.546Z,1092
2017-04-08T13:16:15.990Z,1096
2017-04-08T13:17:15.966Z,1104
2017-04-08T13:18:15.884Z,1120
2017-04-08T13:19:16.986Z,1120
2017-04-08T13:20:15.667Z,1116
2017-04-08T13:21:15.585Z,1116
2017-04-08T13:22:15.326Z,1112
2017-04-08T13:23:15.917Z,1124
2017-04-08T13:24:15.654Z,1128
2017-04-08T13:25:15.612Z,1124
2017-04-08T13:26:15.614Z,1100
2017-04-08T13:27:15.412Z,1076
2017-04-08T13:28:15.996Z,1056
2017-04-08T13:29:15.698Z,1036
2017-04-08T13:30:15.748Z,1020
2017-04-08T13:31:15.656Z,1008
2017-04-08T13:32:16.026Z,1008
2017-04-08T13:33:16.025Z,1008
2017-04-08T13:34:16.043Z,996
2017-04-08T13:35:16.042Z,980
2017-04-08T13:36:15.702Z,980
2017-04-08T13:37:15.698Z,984
2017-04-08T13:38:16.808Z,988
2017-04-08T13:39:15.801Z,996
2017-04-08T13:40:15.829Z,1016
2017-04-08T13:41:18.047Z,1032
2017-04-08T13:42:16.102Z,1040
2017-04-08T13:43:15.738Z,1036
2017-04-08T13:44:15.799Z,1032
2017-04-08T13:45:16.073Z,1020
2017-04-08T13:46:16.141Z,1020
2017-04-08T13:47:15.757Z,1020
2017-04-08T13:48:15.875Z,1020
2017-04-08T13:49:15.777Z,1024
2017-04-08T13:50:16.146Z,1036
2017-04-08T13:51:16.215Z,1032
2017-04-08T13:52:15.531Z,1004
2017-04-08T13:53:15.874Z,972
2017-04-08T13:54:15.917Z,960
2017-04-08T13:55:15.564Z,952
2017-04-08T13:56:15.834Z,948
2017-04-08T13:57:16.158Z,956
2017-04-08T13:58:16.352Z,948
2017-04-08T13:59:16.252Z,928
2017-04-08T14:00:16.229Z,928
2017-04-08T14:01:16.230Z,892
2017-04-08T14:02:15.917Z,860
2017-04-08T14:03:15.893Z,852